Overview Statistics Trail Chart Weather Telemetry Raw packets
 

This is the latest recevied weather packets stored in our database for station/object AG1T-20. If no packets are shown the sender has not sent any weather packets the latest 10 day(s).

<< 8 9 10 11 12 13 14 >>
Time Temp. Humidity Pressure Rain* Wind** Luminosity Snow
1788471605 25.56° C 21% 1018.6 hPa 0 mm - 507 W/m² -
1788471004 25.56° C 19% 1018.8 hPa 0 mm - 288 W/m² -
1788470404 25.56° C 18% 1019.1 hPa 0 mm - 516 W/m² -
1788469804 25.56° C 18% 1019.4 hPa 0 mm - 545 W/m² -
1788469204 26.11° C 19% 1019.2 hPa 0 mm - 571 W/m² -
1788468605 26.11° C 21% 1019.7 hPa 0 mm - 600 W/m² -
1788468005 26.11° C 18% 1019.9 hPa 0 mm - 628 W/m² -
1788467404 25° C 22% 1020.6 hPa 0 mm - 653 W/m² -
1788466804 24.44° C 23% 1021.1 hPa 0 mm - 677 W/m² -
1788466204 24.44° C 24% 1021.2 hPa 0 mm - 697 W/m² -
1788465619 24.44° C 20% 1021.4 hPa 0 mm - 719 W/m² -
1788465004 23.89° C 22% 1022 hPa 0 mm - 739 W/m² -
1788464404 24.44° C 23% 1021.7 hPa 0 mm - 759 W/m² -
1788463805 23.89° C 23% 1022.2 hPa 0 mm - 777 W/m² -
1788463204 22.78° C 27% 1022.8 hPa 0 mm - 792 W/m² -
1788462604 22.78° C 28% 1023.3 hPa 0 mm - 806 W/m² -
1788462004 22.22° C 25% 1023.4 hPa 0 mm - 817 W/m² -
1788461404 22.22° C 28% 1023.9 hPa 0 mm - 828 W/m² -
1788460804 21.11° C 30% 1024.4 hPa 0 mm - 837 W/m² -
1788460204 21.11° C 31% 1024.8 hPa 0 mm - 845 W/m² -
1788459604 21.11° C 32% 1024.8 hPa 0 mm - 852 W/m² -
1788459004 20.56° C 35% 1025.3 hPa 0 mm - 857 W/m² -
1788458404 20.56° C 34% 1025.3 hPa 0 mm - 860 W/m² -
1788457804 20° C 32% 1025.9 hPa 0 mm - 858 W/m² -
1788457204 19.44° C 35% 1026.4 hPa 0 mm - 857 W/m² -

* Rain latest hour (hover to see other rain measurements)
** Current wind speed in m/s (hover to see current wind gust speed)